Time;durP1;ratioP1;P1;durP2;ratioP2;P2;SDS_P1;SDS_P2;PMS_P1;PMS_P2;Temp;Humidity;BMP_temperature;BMP_pressure;BME280_temperature;BME280_humidity;BME280_pressure;Samples;Min_cycle;Max_cycle;Signal;HPM_P1;HPM_P2
2023/01/18 00:00:30;;;;;;;;;;;;;;;-0.87;68.64;89803.53;2071631;69;20056;-71
2023/01/18 00:02:56;;;;;;;;;;;;;;;-0.84;67.67;89807.09;2071551;69;20459;-72
2023/01/18 00:05:22;;;;;;;;;;;;;;;-0.94;67.99;89801.75;2071680;69;20521;-70
2023/01/18 00:07:48;;;;;;;;;;;;;;;-0.85;67.72;89789.09;2068456;69;20139;-73
2023/01/18 00:10:14;;;;;;;;;;;;;;;-0.82;67.40;89796.91;2071402;69;20505;-71
2023/01/18 00:12:39;;;;;;;;;;;;;;;-0.82;67.29;89793.44;2071576;69;20483;-73
2023/01/18 00:15:05;;;;;;;;;;;;;;;-0.84;67.52;89794.00;2071623;69;20048;-70
2023/01/18 00:17:31;;;;;;;;;;;;;;;-1.02;69.06;89784.75;2071968;69;20049;-71
2023/01/18 00:19:58;;;;;;;;;;;;;;;-0.97;68.95;89785.69;2068543;69;20061;-71
2023/01/18 00:22:23;;;;;;;;;;;;;;;-0.93;68.60;89785.91;2072025;69;20095;-71
2023/01/18 00:24:50;;;;;;;;;;;;;;;-0.94;67.74;89790.72;2071903;69;20054;-71
2023/01/18 00:27:15;;;;;;;;;;;;;;;-1.07;67.93;89791.38;2072132;69;20148;-70
2023/01/18 00:29:41;;;;;;;;;;;;;;;-0.96;68.89;89798.16;2065953;69;20147;-71
2023/01/18 00:32:06;;;;;;;;;;;;;;;-1.02;68.76;89796.50;2071940;69;20410;-71
2023/01/18 00:34:32;;;;;;;;;;;;;;;-1.39;69.63;89788.22;2068845;69;20429;-74
2023/01/18 00:36:58;;;;;;;;;;;;;;;-1.32;69.17;89792.06;2068900;69;20045;-74
2023/01/18 00:39:23;;;;;;;;;;;;;;;-1.58;70.97;89788.53;2071942;69;20087;-73
2023/01/18 00:44:32;;;;;;;;;;;;;;;-1.14;69.43;89784.09;2069474;69;20494;-69
2023/01/18 00:46:58;;;;;;;;;;;;;;;-1.05;69.10;89786.69;2072182;69;20048;-71
2023/01/18 00:49:24;;;;;;;;;;;;;;;-1.04;69.42;89779.13;2072064;69;20045;-71
2023/01/18 00:51:51;;;;;;;;;;;;;;;-1.07;68.49;89780.31;2071998;69;20048;-73
2023/01/18 00:54:17;;;;;;;;;;;;;;;-1.12;68.97;89779.38;2068488;69;20146;-74
2023/01/18 00:56:42;;;;;;;;;;;;;;;-1.19;69.33;89780.38;2068691;69;20210;-74
2023/01/18 00:59:08;;;;;;;;;;;;;;;-1.06;68.84;89781.75;2071825;69;20056;-73
2023/01/18 01:01:33;;;;;;;;;;;;;;;-1.13;69.24;89775.19;2071974;69;20172;-74
2023/01/18 01:06:43;;;;;;;;;;;;;;;-1.16;69.19;89797.75;2071898;69;20080;-74
2023/01/18 01:09:19;;;;;;;;;;;;;;;-1.21;69.20;89794.06;2068611;69;20032;-74
2023/01/18 01:28:10;;;;;;;;;;;;;;;-1.22;69.33;89831.28;2071794;69;20041;-70
2023/01/18 01:30:36;;;;;;;;;;;;;;;-1.19;69.48;89837.59;2072040;69;20408;-72
2023/01/18 01:33:01;;;;;;;;;;;;;;;-1.13;68.84;89852.47;2071935;69;20071;-71
2023/01/18 01:35:27;;;;;;;;;;;;;;;-1.15;69.34;89855.13;2071863;69;20087;-71
2023/01/18 01:37:52;;;;;;;;;;;;;;;-1.06;69.92;89853.53;2071742;69;20091;-71
2023/01/18 01:40:17;;;;;;;;;;;;;;;-1.01;69.53;89860.72;2072020;69;20044;-73
2023/01/18 01:42:43;;;;;;;;;;;;;;;-0.94;68.76;89870.06;2071857;69;20067;-72
2023/01/18 01:45:09;;;;;;;;;;;;;;;-0.85;69.43;89875.44;2072086;69;20060;-70
2023/01/18 01:47:43;;;;;;;;;;;;;;;-0.77;69.17;89877.94;2072001;69;20491;-70
2023/01/18 01:50:27;;;;;;;;;;;;;;;-0.86;69.31;89876.06;2071902;69;20036;-72
2023/01/18 01:52:54;;;;;;;;;;;;;;;-1.11;70.56;89879.47;2071813;69;20064;-70
2023/01/18 01:55:29;;;;;;;;;;;;;;;-0.96;69.83;89881.00;2071717;69;20045;-71
2023/01/18 01:57:54;;;;;;;;;;;;;;;-0.82;69.17;89884.56;2071647;69;20572;-73
2023/01/18 02:00:22;;;;;;;;;;;;;;;-0.79;69.59;89886.09;2071781;69;20044;-71
2023/01/18 02:02:52;;;;;;;;;;;;;;;-0.87;69.90;89880.88;2071891;69;20565;-71
2023/01/18 02:05:18;;;;;;;;;;;;;;;-0.74;69.24;89887.03;2071929;69;20045;-72
2023/01/18 02:07:43;;;;;;;;;;;;;;;-0.85;70.14;89894.06;2071356;69;20040;-72
2023/01/18 02:10:09;;;;;;;;;;;;;;;-0.90;70.39;89897.91;2071548;69;20118;-71
2023/01/18 02:12:37;;;;;;;;;;;;;;;-0.70;70.00;89903.84;2071732;69;20052;-71
2023/01/18 02:15:03;;;;;;;;;;;;;;;-0.64;70.02;89906.94;2072063;69;20107;-73
2023/01/18 02:17:47;;;;;;;;;;;;;;;-0.54;69.52;89904.75;2072088;69;20084;-72
2023/01/18 02:20:23;;;;;;;;;;;;;;;-0.60;69.52;89887.81;2072102;69;20060;-71
2023/01/18 02:23:07;;;;;;;;;;;;;;;-0.50;69.44;89913.28;2072132;69;20509;-71
2023/01/18 02:25:51;;;;;;;;;;;;;;;-0.60;70.65;89912.69;2071966;69;20087;-72
2023/01/18 02:28:18;;;;;;;;;;;;;;;-0.69;70.75;89922.56;2071931;69;20068;-73
2023/01/18 02:30:58;;;;;;;;;;;;;;;-0.73;71.52;89930.66;2071748;69;20131;-70
2023/01/18 02:33:27;;;;;;;;;;;;;;;-0.46;70.04;89926.56;2072291;69;20049;-72
2023/01/18 02:35:55;;;;;;;;;;;;;;;-0.42;69.68;89929.56;2071876;69;20133;-71
2023/01/18 02:38:23;;;;;;;;;;;;;;;-0.38;70.07;89930.50;2071742;69;20479;-73
2023/01/18 02:40:55;;;;;;;;;;;;;;;-0.71;70.36;89930.03;2071852;69;20053;-72
2023/01/18 02:48:54;;;;;;;;;;;;;;;-0.62;71.75;89934.69;2071631;69;20072;-71
2023/01/18 02:51:20;;;;;;;;;;;;;;;-0.40;70.21;89935.22;2071804;69;20415;-71
2023/01/18 02:53:46;;;;;;;;;;;;;;;-0.36;70.12;89940.97;2071746;69;20052;-72
2023/01/18 02:56:14;;;;;;;;;;;;;;;-0.30;70.08;89944.78;2071857;69;20523;-71
2023/01/18 02:58:47;;;;;;;;;;;;;;;-0.28;69.87;89942.09;2071719;69;20471;-71
2023/01/18 03:01:16;;;;;;;;;;;;;;;-0.21;69.56;89940.41;2068414;69;20104;-71
2023/01/18 03:03:45;;;;;;;;;;;;;;;-0.30;69.56;89949.59;2071918;69;20055;-72
2023/01/18 03:06:11;;;;;;;;;;;;;;;-0.19;69.97;89946.03;2071740;69;20551;-72
2023/01/18 03:08:41;;;;;;;;;;;;;;;-0.13;69.40;89960.22;2071432;69;20133;-70
2023/01/18 03:11:19;;;;;;;;;;;;;;;-0.28;69.57;89958.69;2071911;69;20502;-71
2023/01/18 03:13:44;;;;;;;;;;;;;;;-0.39;70.13;89965.00;2071683;69;20557;-72
2023/01/18 03:16:18;;;;;;;;;;;;;;;-0.41;70.46;89962.13;2071650;69;20041;-73
2023/01/18 03:21:54;;;;;;;;;;;;;;;-0.63;71.25;89967.13;2071685;69;20080;-71
2023/01/18 03:24:20;;;;;;;;;;;;;;;-0.38;70.65;89971.25;2071744;69;20253;-74
2023/01/18 03:26:48;;;;;;;;;;;;;;;-0.24;69.84;89965.78;2071711;69;20661;-71
2023/01/18 03:34:51;;;;;;;;;;;;;;;-0.15;70.17;89968.38;2071922;69;20483;-72
2023/01/18 03:37:19;;;;;;;;;;;;;;;-0.09;69.70;89967.97;2071454;69;20044;-71
2023/01/18 03:40:08;;;;;;;;;;;;;;;-0.05;69.54;89970.97;2068388;69;20089;-73
2023/01/18 03:42:38;;;;;;;;;;;;;;;-0.08;69.50;89953.56;2069740;69;20052;-72
2023/01/18 03:45:07;;;;;;;;;;;;;;;-0.31;70.19;89956.44;2071755;69;20112;-71
2023/01/18 03:47:33;;;;;;;;;;;;;;;-0.20;70.20;89958.44;2071826;69;20220;-72
2023/01/18 03:49:58;;;;;;;;;;;;;;;-0.06;69.90;89947.41;2071695;69;20052;-71
2023/01/18 03:52:40;;;;;;;;;;;;;;;-0.13;70.52;89951.91;2071619;69;20045;-73
2023/01/18 03:55:12;;;;;;;;;;;;;;;0.00;69.45;89942.25;2071650;69;20415;-72
2023/01/18 03:57:41;;;;;;;;;;;;;;;0.00;69.31;89953.28;2071715;69;20506;-72
2023/01/18 04:00:08;;;;;;;;;;;;;;;0.08;69.08;89953.72;2068241;69;20044;-73
2023/01/18 04:02:43;;;;;;;;;;;;;;;0.08;69.51;89956.47;2071521;69;20431;-72
2023/01/18 04:05:10;;;;;;;;;;;;;;;-0.01;69.52;89955.31;2068303;69;20048;-71
2023/01/18 04:07:37;;;;;;;;;;;;;;;0.04;69.17;89964.56;2071439;69;20054;-70
2023/01/18 04:10:03;;;;;;;;;;;;;;;0.10;68.88;89966.94;2071283;69;20075;-71
2023/01/18 04:12:30;;;;;;;;;;;;;;;-0.01;69.81;89963.63;2071382;69;20413;-72
2023/01/18 04:14:55;;;;;;;;;;;;;;;0.08;69.26;89973.06;2071347;69;20044;-71
2023/01/18 04:17:22;;;;;;;;;;;;;;;0.10;69.13;89970.44;2071471;69;20547;-72
2023/01/18 04:19:48;;;;;;;;;;;;;;;0.15;69.05;89971.38;2072030;69;20124;-74
2023/01/18 04:22:13;;;;;;;;;;;;;;;0.04;69.24;89972.13;2072308;69;20477;-71
2023/01/18 04:24:39;;;;;;;;;;;;;;;0.05;69.38;89979.84;2068329;69;20052;-73
2023/01/18 04:27:05;;;;;;;;;;;;;;;0.01;69.67;89970.59;2071841;69;20051;-72
2023/01/18 04:29:30;;;;;;;;;;;;;;;-0.03;70.16;89960.75;2071734;69;20140;-72
2023/01/18 04:31:56;;;;;;;;;;;;;;;-0.13;69.33;89954.69;2071682;69;20468;-72
2023/01/18 04:34:21;;;;;;;;;;;;;;;-0.08;69.35;89950.81;2071798;69;20475;-73
2023/01/18 04:36:49;;;;;;;;;;;;;;;-0.11;69.36;89954.78;2071741;69;20044;-73
2023/01/18 04:39:14;;;;;;;;;;;;;;;-0.15;69.32;89959.38;2071484;69;20048;-72
2023/01/18 04:41:39;;;;;;;;;;;;;;;-0.21;69.73;89956.28;2071671;69;20477;-74
2023/01/18 04:44:05;;;;;;;;;;;;;;;-0.23;69.38;89945.81;2071683;69;20044;-72
2023/01/18 04:46:31;;;;;;;;;;;;;;;-0.28;68.59;89953.16;2071715;69;20139;-72
2023/01/18 04:48:56;;;;;;;;;;;;;;;-0.59;70.98;89948.03;2071705;69;20103;-74
2023/01/18 04:51:26;;;;;;;;;;;;;;;-0.70;72.18;89956.34;2071644;69;20067;-72
2023/01/18 04:53:51;;;;;;;;;;;;;;;-0.59;70.89;89950.06;2068088;69;20135;-72
2023/01/18 04:56:17;;;;;;;;;;;;;;;-0.48;70.26;89959.63;2071537;69;20146;-72
2023/01/18 04:58:42;;;;;;;;;;;;;;;-0.51;70.31;89959.50;2071499;69;20115;-71
2023/01/18 05:01:10;;;;;;;;;;;;;;;-0.51;69.46;89961.56;2071524;69;20044;-74
2023/01/18 05:03:37;;;;;;;;;;;;;;;-0.57;69.69;89963.97;2071561;69;20044;-72
2023/01/18 05:06:03;;;;;;;;;;;;;;;-0.54;69.56;89966.25;2071894;69;20045;-72
2023/01/18 05:08:29;;;;;;;;;;;;;;;-0.84;70.12;89967.28;2071741;69;20076;-74
2023/01/18 05:10:59;;;;;;;;;;;;;;;-0.78;70.78;89970.38;2071828;69;20171;-72
2023/01/18 05:13:24;;;;;;;;;;;;;;;-0.71;70.39;89977.00;2071911;69;20052;-72
2023/01/18 05:15:49;;;;;;;;;;;;;;;-0.65;70.30;89974.56;2068587;69;20052;-72
2023/01/18 05:18:15;;;;;;;;;;;;;;;-0.71;69.86;89971.47;2071786;69;20215;-73
2023/01/18 05:20:40;;;;;;;;;;;;;;;-0.74;71.36;89967.88;2071889;69;20134;-72
2023/01/18 05:23:09;;;;;;;;;;;;;;;-0.87;71.41;89979.53;2071920;69;20088;-72
2023/01/18 05:25:35;;;;;;;;;;;;;;;-0.80;71.22;89982.06;2071925;69;20056;-72
2023/01/18 05:28:00;;;;;;;;;;;;;;;-0.68;70.73;89995.13;2071917;69;20033;-74
2023/01/18 05:30:26;;;;;;;;;;;;;;;-0.74;70.77;89992.00;2071853;69;20469;-72
2023/01/18 05:32:51;;;;;;;;;;;;;;;-0.72;69.68;89995.63;2071948;69;20044;-72
2023/01/18 05:35:17;;;;;;;;;;;;;;;-0.69;69.79;90002.69;2071822;69;20049;-73
2023/01/18 05:37:42;;;;;;;;;;;;;;;-0.62;69.77;90007.25;2071891;69;20083;-72
2023/01/18 05:40:08;;;;;;;;;;;;;;;-0.70;69.74;90000.53;2071808;69;20080;-74
2023/01/18 05:42:33;;;;;;;;;;;;;;;-0.61;69.97;90007.97;2071730;69;20144;-74
2023/01/18 05:44:59;;;;;;;;;;;;;;;-0.61;69.24;90011.44;2071810;69;20110;-72
2023/01/18 05:47:24;;;;;;;;;;;;;;;-0.58;69.68;90006.75;2071907;69;20055;-72
2023/01/18 05:49:50;;;;;;;;;;;;;;;-0.86;70.58;90012.09;2072019;69;20041;-73
2023/01/18 05:52:15;;;;;;;;;;;;;;;-0.78;71.36;90014.59;2071740;69;20040;-73
2023/01/18 05:54:41;;;;;;;;;;;;;;;-0.68;70.90;90026.25;2071633;69;20139;-72
2023/01/18 05:57:06;;;;;;;;;;;;;;;-0.62;70.39;90020.34;2071864;69;20044;-72
2023/01/18 05:59:32;;;;;;;;;;;;;;;-0.58;70.19;90020.56;2071691;69;20487;-72
2023/01/18 06:01:57;;;;;;;;;;;;;;;-0.53;70.11;90025.00;2071751;69;20476;-71
2023/01/18 06:04:23;;;;;;;;;;;;;;;-0.60;70.64;90026.69;2071860;69;20147;-73
2023/01/18 06:06:48;;;;;;;;;;;;;;;-0.92;71.57;90020.00;2071791;69;20052;-74
2023/01/18 06:09:13;;;;;;;;;;;;;;;-0.60;71.31;90031.50;2071612;69;20128;-73
2023/01/18 06:11:39;;;;;;;;;;;;;;;-0.51;69.97;90031.34;2071778;69;20139;-72
2023/01/18 06:14:04;;;;;;;;;;;;;;;-0.46;70.50;90039.88;2071767;69;20147;-74
2023/01/18 06:16:30;;;;;;;;;;;;;;;-0.50;70.84;90043.16;2071822;69;20083;-72
2023/01/18 06:18:55;;;;;;;;;;;;;;;-0.45;70.29;90046.88;2071855;69;20505;-71
2023/01/18 06:21:21;;;;;;;;;;;;;;;-0.34;69.92;90057.88;2071846;69;20109;-74
2023/01/18 06:23:46;;;;;;;;;;;;;;;-0.37;70.16;90059.06;2071727;69;20051;-72
2023/01/18 06:26:12;;;;;;;;;;;;;;;-0.39;70.31;90067.25;2071798;69;20084;-72
2023/01/18 06:28:37;;;;;;;;;;;;;;;-0.48;71.44;90078.47;2068545;69;20068;-72
2023/01/18 06:31:04;;;;;;;;;;;;;;;-0.36;70.00;90077.13;2071779;69;20131;-72
2023/01/18 06:33:30;;;;;;;;;;;;;;;-0.31;70.40;90083.59;2071784;69;20427;-73
2023/01/18 06:35:55;;;;;;;;;;;;;;;-0.38;70.10;90090.09;2071875;69;20048;-73
2023/01/18 06:38:20;;;;;;;;;;;;;;;-0.43;70.71;90091.91;2071647;69;20560;-72
2023/01/18 06:40:46;;;;;;;;;;;;;;;-0.44;70.68;90090.47;2071854;69;20558;-73
2023/01/18 06:43:12;;;;;;;;;;;;;;;-0.43;70.84;90097.44;2068469;69;20137;-72
2023/01/18 06:45:38;;;;;;;;;;;;;;;-0.39;70.50;90103.19;2071739;69;20055;-73
2023/01/18 06:48:04;;;;;;;;;;;;;;;-0.35;70.23;90097.91;2071820;69;20040;-73
2023/01/18 06:50:29;;;;;;;;;;;;;;;-0.37;70.44;90108.13;2071816;69;20136;-75
2023/01/18 06:52:55;;;;;;;;;;;;;;;-0.41;70.78;90105.13;2071815;69;20045;-75
2023/01/18 06:55:20;;;;;;;;;;;;;;;-0.58;72.30;90112.47;2071525;69;20143;-72
2023/01/18 06:57:46;;;;;;;;;;;;;;;-0.46;72.13;90109.69;2071660;69;20480;-73
2023/01/18 07:00:12;;;;;;;;;;;;;;;-0.32;70.85;90110.53;2071779;69;20041;-72
2023/01/18 07:02:37;;;;;;;;;;;;;;;-0.31;70.74;90114.00;2068332;69;20115;-73
2023/01/18 07:05:03;;;;;;;;;;;;;;;-0.27;70.53;90119.78;2071860;69;20464;-74
2023/01/18 07:07:29;;;;;;;;;;;;;;;-0.21;70.74;90114.59;2071748;69;20114;-74
2023/01/18 07:09:54;;;;;;;;;;;;;;;-0.19;70.53;90122.97;2071781;69;20478;-72
2023/01/18 07:12:20;;;;;;;;;;;;;;;-0.23;70.66;90128.28;2071822;69;20473;-74
2023/01/18 07:14:45;;;;;;;;;;;;;;;-0.34;71.72;90115.94;2071770;69;20434;-73
2023/01/18 07:17:11;;;;;;;;;;;;;;;-0.22;71.76;90117.97;2071606;69;20091;-72
2023/01/18 07:19:37;;;;;;;;;;;;;;;-0.33;71.49;90120.13;2071723;69;20147;-72
2023/01/18 07:22:02;;;;;;;;;;;;;;;-0.24;71.71;90124.09;2071807;69;20060;-74
2023/01/18 07:24:29;;;;;;;;;;;;;;;-0.27;71.39;90117.00;2071506;69;20114;-73
2023/01/18 07:26:54;;;;;;;;;;;;;;;-0.23;71.31;90124.78;2071369;69;20072;-72
2023/01/18 07:29:20;;;;;;;;;;;;;;;-0.33;72.05;90127.69;2071800;69;20037;-74
2023/01/18 07:31:46;;;;;;;;;;;;;;;-0.24;71.90;90128.88;2072020;69;20124;-72
2023/01/18 07:34:12;;;;;;;;;;;;;;;-0.18;70.88;90129.22;2071946;69;20131;-75
2023/01/18 07:36:38;;;;;;;;;;;;;;;-0.23;70.64;90130.31;2072064;69;20056;-72
2023/01/18 07:39:05;;;;;;;;;;;;;;;-0.17;71.12;90131.41;2071593;69;20423;-74
2023/01/18 07:41:31;;;;;;;;;;;;;;;-0.33;71.63;90141.53;2071800;69;20144;-73
2023/01/18 07:43:56;;;;;;;;;;;;;;;-0.33;71.75;90158.09;2071984;69;20139;-74
2023/01/18 07:46:22;;;;;;;;;;;;;;;-0.39;71.63;90152.94;2071797;69;20043;-74
2023/01/18 07:48:47;;;;;;;;;;;;;;;-0.32;71.14;90156.78;2072060;69;20055;-74
2023/01/18 07:51:13;;;;;;;;;;;;;;;-0.23;70.82;90163.50;2071754;69;20068;-72
2023/01/18 07:53:39;;;;;;;;;;;;;;;-0.25;70.94;90166.88;2071915;69;20081;-74
2023/01/18 07:56:06;;;;;;;;;;;;;;;-0.33;70.62;90163.63;2071945;69;20118;-74
2023/01/18 07:58:32;;;;;;;;;;;;;;;-0.42;70.69;90170.72;2071934;69;20132;-72
2023/01/18 08:01:05;;;;;;;;;;;;;;;-0.33;70.65;90172.66;2071913;69;20496;-71
2023/01/18 08:03:30;;;;;;;;;;;;;;;-0.37;71.02;90182.75;2072055;69;20135;-71
2023/01/18 08:05:57;;;;;;;;;;;;;;;-0.37;70.70;90174.44;2071492;69;20041;-70
2023/01/18 08:08:22;;;;;;;;;;;;;;;-0.48;71.52;90189.00;2071376;69;20546;-72
2023/01/18 08:10:52;;;;;;;;;;;;;;;-0.42;72.05;90184.53;2071538;69;20053;-73
2023/01/18 08:13:18;;;;;;;;;;;;;;;-0.31;70.97;90189.38;2071414;69;20050;-74
2023/01/18 08:15:44;;;;;;;;;;;;;;;-0.23;71.20;90185.63;2071511;69;20049;-73
2023/01/18 08:18:09;;;;;;;;;;;;;;;-0.26;71.13;90187.56;2071470;69;20044;-73
2023/01/18 08:20:35;;;;;;;;;;;;;;;-0.22;71.11;90190.56;2071457;69;20037;-72
2023/01/18 08:23:01;;;;;;;;;;;;;;;-0.22;71.35;90187.81;2071557;69;20043;-73
2023/01/18 08:25:28;;;;;;;;;;;;;;;-0.15;70.91;90191.63;2071557;69;20052;-71
2023/01/18 08:27:58;;;;;;;;;;;;;;;-0.04;70.88;90191.63;2071556;69;20096;-72
2023/01/18 08:30:27;;;;;;;;;;;;;;;0.08;70.35;90190.88;2071392;69;20141;-70
2023/01/18 08:32:57;;;;;;;;;;;;;;;0.16;70.29;90196.88;2071566;69;20064;-71
2023/01/18 08:35:23;;;;;;;;;;;;;;;0.13;70.93;90204.34;2071537;69;20147;-74
2023/01/18 08:37:48;;;;;;;;;;;;;;;0.02;70.96;90209.91;2071782;69;20178;-71
2023/01/18 08:40:14;;;;;;;;;;;;;;;0.13;70.75;90204.34;2071941;69;20052;-72
2023/01/18 08:42:39;;;;;;;;;;;;;;;0.28;70.88;90219.72;2072038;69;20485;-71
2023/01/18 08:45:05;;;;;;;;;;;;;;;0.43;70.83;90218.47;2068649;69;20053;-74
2023/01/18 08:47:31;;;;;;;;;;;;;;;0.86;70.42;90216.03;2072126;69;20165;-75
2023/01/18 08:49:56;;;;;;;;;;;;;;;1.03;70.28;90225.97;2072079;69;20127;-71
2023/01/18 08:52:21;;;;;;;;;;;;;;;1.26;70.31;90234.16;2072288;69;20045;-74
2023/01/18 08:54:47;;;;;;;;;;;;;;;1.70;69.82;90242.72;2071943;69;20151;-73
2023/01/18 08:57:12;;;;;;;;;;;;;;;2.02;69.06;90249.94;2072120;69;20099;-72
2023/01/18 08:59:38;;;;;;;;;;;;;;;2.46;68.67;90256.31;2072195;69;20080;-74
2023/01/18 09:02:03;;;;;;;;;;;;;;;2.66;68.76;90253.84;2072177;69;20139;-74
2023/01/18 09:04:29;;;;;;;;;;;;;;;2.61;69.97;90257.78;2069206;69;20055;-74
2023/01/18 09:06:54;;;;;;;;;;;;;;;3.09;67.10;90253.13;2072653;69;20131;-73
2023/01/18 09:09:20;;;;;;;;;;;;;;;3.51;65.49;90250.94;2072292;69;20047;-73
2023/01/18 09:11:45;;;;;;;;;;;;;;;3.79;65.06;90263.34;2072503;69;20088;-75
2023/01/18 09:14:10;;;;;;;;;;;;;;;4.00;63.35;90259.44;2072389;69;20510;-76
2023/01/18 09:16:36;;;;;;;;;;;;;;;4.47;62.31;90255.91;2072250;69;20044;-75
2023/01/18 09:19:05;;;;;;;;;;;;;;;4.55;61.60;90250.69;2072180;69;20051;-74
2023/01/18 09:21:30;;;;;;;;;;;;;;;4.87;59.51;90253.44;2072142;69;20041;-74
2023/01/18 09:23:56;;;;;;;;;;;;;;;4.98;58.96;90254.56;2072221;69;20046;-75
2023/01/18 09:26:22;;;;;;;;;;;;;;;5.39;57.95;90261.78;2072267;69;20044;-75
2023/01/18 09:28:49;;;;;;;;;;;;;;;4.89;54.19;90270.22;2066124;69;20048;-75
2023/01/18 09:31:15;;;;;;;;;;;;;;;5.26;54.20;90274.53;2072120;69;20040;-76
2023/01/18 09:33:41;;;;;;;;;;;;;;;5.70;55.49;90272.09;2068762;69;20046;-74
2023/01/18 09:36:08;;;;;;;;;;;;;;;6.00;56.06;90284.47;2072096;69;20052;-72
2023/01/18 09:38:35;;;;;;;;;;;;;;;6.19;52.86;90285.88;2072284;69;20060;-73
2023/01/18 09:41:01;;;;;;;;;;;;;;;6.58;54.14;90284.50;2072368;69;20052;-73
2023/01/18 09:43:29;;;;;;;;;;;;;;;6.60;53.37;90288.09;2072317;69;20114;-75
2023/01/18 09:45:55;;;;;;;;;;;;;;;6.36;52.26;90281.59;2071881;69;20418;-72
2023/01/18 09:48:34;;;;;;;;;;;;;;;6.57;52.21;90281.00;2071802;69;20052;-77
2023/01/18 09:51:03;;;;;;;;;;;;;;;6.70;51.85;90273.06;2071887;69;20052;-76
2023/01/18 09:53:29;;;;;;;;;;;;;;;7.18;50.89;90284.50;2072060;69;20080;-77
2023/01/18 09:55:59;;;;;;;;;;;;;;;7.48;50.07;90279.22;2072083;69;20136;-77
2023/01/18 09:58:30;;;;;;;;;;;;;;;7.94;48.72;90285.59;2071933;69;20122;-78
2023/01/18 10:01:16;;;;;;;;;;;;;;;7.97;48.25;90284.28;2071882;69;20048;-73
2023/01/18 10:03:53;;;;;;;;;;;;;;;7.22;47.55;90290.94;2071930;69;20426;-74
2023/01/18 10:06:22;;;;;;;;;;;;;;;7.53;47.95;90286.38;2071953;69;20109;-71
2023/01/18 10:08:54;;;;;;;;;;;;;;;6.59;47.69;90294.31;2071647;69;20052;-73
2023/01/18 10:11:30;;;;;;;;;;;;;;;7.67;47.33;90297.31;2072052;69;20049;-73
2023/01/18 10:14:02;;;;;;;;;;;;;;;6.58;46.54;90296.41;2071608;69;20508;-71
2023/01/18 10:16:29;;;;;;;;;;;;;;;6.36;46.97;90292.78;2071708;69;20141;-75
2023/01/18 10:19:00;;;;;;;;;;;;;;;6.42;47.80;90295.09;2068328;69;20053;-75
2023/01/18 10:21:29;;;;;;;;;;;;;;;5.70;49.54;90300.72;2071785;69;20060;-76
2023/01/18 10:23:54;;;;;;;;;;;;;;;6.00;48.17;90301.22;2071621;69;20495;-73
2023/01/18 10:26:28;;;;;;;;;;;;;;;6.35;48.74;90305.31;2071657;69;20040;-73
2023/01/18 10:28:57;;;;;;;;;;;;;;;6.40;48.21;90303.38;2071910;69;20068;-73
2023/01/18 10:31:32;;;;;;;;;;;;;;;6.23;48.56;90299.25;2071698;69;20048;-72
2023/01/18 10:33:58;;;;;;;;;;;;;;;6.32;47.80;90303.81;2071620;69;20075;-75
2023/01/18 10:36:25;;;;;;;;;;;;;;;6.39;47.27;90302.69;2071561;69;20103;-73
2023/01/18 10:38:53;;;;;;;;;;;;;;;6.11;47.98;90297.47;2071483;69;20121;-75
2023/01/18 10:41:20;;;;;;;;;;;;;;;6.20;48.15;90304.06;2071654;69;20495;-76
2023/01/18 10:43:45;;;;;;;;;;;;;;;6.20;48.06;90294.97;2071634;69;20053;-76
2023/01/18 10:46:15;;;;;;;;;;;;;;;6.25;48.04;90302.88;2071760;69;20506;-75
2023/01/18 10:48:44;;;;;;;;;;;;;;;5.78;48.90;90306.63;2071613;69;20110;-72
2023/01/18 10:51:22;;;;;;;;;;;;;;;5.13;51.00;90309.56;2071595;69;20049;-75
2023/01/18 10:53:47;;;;;;;;;;;;;;;5.91;49.62;90315.47;2071530;69;20067;-75
2023/01/18 10:56:16;;;;;;;;;;;;;;;6.07;49.52;90313.34;2071684;69;20507;-73
2023/01/18 10:58:50;;;;;;;;;;;;;;;6.08;48.64;90303.59;2071672;69;20094;-71
2023/01/18 11:01:18;;;;;;;;;;;;;;;6.03;48.84;90302.72;2071304;69;20036;-72
2023/01/18 11:03:48;;;;;;;;;;;;;;;5.98;49.16;90306.72;2071578;69;20475;-73
2023/01/18 11:06:15;;;;;;;;;;;;;;;6.08;50.31;90303.59;2071876;69;20071;-71
2023/01/18 11:08:41;;;;;;;;;;;;;;;5.13;51.71;90306.78;2071506;69;20143;-74
2023/01/18 11:11:13;;;;;;;;;;;;;;;5.29;51.36;90303.94;2071630;69;20100;-75
2023/01/18 11:13:38;;;;;;;;;;;;;;;5.66;51.19;90311.00;2071916;69;20080;-76
2023/01/18 11:16:04;;;;;;;;;;;;;;;5.80;51.11;90308.78;2071702;69;20041;-72
2023/01/18 11:18:29;;;;;;;;;;;;;;;5.71;49.74;90316.09;2071580;69;20052;-74
2023/01/18 11:20:56;;;;;;;;;;;;;;;5.99;49.69;90316.53;2068274;69;20076;-74
2023/01/18 11:23:39;;;;;;;;;;;;;;;7.42;47.96;90324.47;2071484;69;20037;-75
2023/01/18 11:26:17;;;;;;;;;;;;;;;10.56;47.50;90324.25;2071624;69;20049;-75
2023/01/18 11:28:43;;;;;;;;;;;;;;;9.94;41.68;90322.06;2071624;69;20052;-79
2023/01/18 11:31:16;;;;;;;;;;;;;;;8.61;44.00;90324.09;2071497;69;20070;-73
2023/01/18 11:33:56;;;;;;;;;;;;;;;8.74;43.91;90319.53;2071578;69;20040;-72
2023/01/18 11:36:42;;;;;;;;;;;;;;;10.42;44.55;90316.91;2071623;69;20087;-72
2023/01/18 11:39:25;;;;;;;;;;;;;;;9.54;42.73;90319.66;2071396;69;20478;-77
2023/01/18 11:42:08;;;;;;;;;;;;;;;10.64;43.94;90322.34;2071505;69;20097;-79
2023/01/18 11:44:35;;;;;;;;;;;;;;;10.57;41.92;90317.25;2071737;69;20225;-77
2023/01/18 11:47:04;;;;;;;;;;;;;;;10.40;40.92;90316.16;2071561;69;20140;-77
2023/01/18 11:49:46;;;;;;;;;;;;;;;10.10;40.88;90318.94;2071706;69;20091;-73
2023/01/18 11:52:11;;;;;;;;;;;;;;;9.01;42.16;90317.50;2071566;69;20047;-73
2023/01/18 11:54:45;;;;;;;;;;;;;;;8.41;43.73;90317.88;2067982;69;20041;-73
2023/01/18 11:57:11;;;;;;;;;;;;;;;9.22;42.33;90325.13;2067998;69;20154;-74
2023/01/18 11:59:42;;;;;;;;;;;;;;;9.08;42.02;90322.63;2071479;69;20056;-76
2023/01/18 12:02:26;;;;;;;;;;;;;;;9.12;42.58;90325.56;2071314;69;20467;-76
2023/01/18 12:05:11;;;;;;;;;;;;;;;8.96;42.98;90327.19;2071307;69;20052;-76
2023/01/18 12:07:39;;;;;;;;;;;;;;;9.10;43.91;90328.28;2071329;69;20424;-76
2023/01/18 12:10:11;;;;;;;;;;;;;;;8.84;43.95;90322.66;2071282;69;20048;-74
2023/01/18 12:12:37;;;;;;;;;;;;;;;8.99;41.29;90323.06;2071706;69;20498;-75
2023/01/18 12:15:21;;;;;;;;;;;;;;;8.74;40.02;90330.06;2072150;69;20041;-77
2023/01/18 12:17:51;;;;;;;;;;;;;;;7.21;45.67;90339.16;2071911;69;20650;-75
2023/01/18 12:20:22;;;;;;;;;;;;;;;7.98;45.12;90343.84;2071950;69;20044;-74
2023/01/18 12:23:00;;;;;;;;;;;;;;;6.64;46.48;90351.81;2072055;69;20045;-73
2023/01/18 12:25:38;;;;;;;;;;;;;;;6.90;47.07;90354.84;2071810;69;20044;-74
2023/01/18 12:28:15;;;;;;;;;;;;;;;7.27;47.12;90358.94;2071988;69;20076;-74
2023/01/18 12:30:50;;;;;;;;;;;;;;;6.77;45.83;90355.78;2072139;69;20049;-73
2023/01/18 12:33:34;;;;;;;;;;;;;;;6.94;46.15;90357.09;2071944;69;20418;-72
2023/01/18 12:36:07;;;;;;;;;;;;;;;7.05;44.90;90364.47;2071975;69;20182;-74
2023/01/18 12:38:34;;;;;;;;;;;;;;;7.44;44.52;90354.63;2071707;69;20047;-76
2023/01/18 12:41:10;;;;;;;;;;;;;;;7.67;43.81;90356.13;2072065;69;20452;-78
2023/01/18 12:43:44;;;;;;;;;;;;;;;7.81;44.26;90360.09;2068351;69;20064;-76
2023/01/18 12:46:13;;;;;;;;;;;;;;;7.62;43.99;90358.06;2071843;69;20068;-74
2023/01/18 12:48:42;;;;;;;;;;;;;;;7.51;44.18;90350.66;2071917;69;20044;-75
2023/01/18 12:51:13;;;;;;;;;;;;;;;7.39;43.24;90348.91;2073591;69;20049;-75
2023/01/18 12:54:02;;;;;;;;;;;;;;;7.02;43.11;90349.72;2071795;69;20044;-77
2023/01/18 12:56:34;;;;;;;;;;;;;;;6.90;43.40;90351.34;2072465;69;20049;-77
2023/01/18 12:59:19;;;;;;;;;;;;;;;7.01;45.01;90350.34;2068472;69;20051;-75
2023/01/18 13:01:50;;;;;;;;;;;;;;;6.85;44.74;90347.69;2071791;69;20055;-77
2023/01/18 13:04:23;;;;;;;;;;;;;;;6.75;44.77;90350.84;2068390;69;20045;-76
2023/01/18 13:06:51;;;;;;;;;;;;;;;6.55;46.02;90345.22;2071846;69;20091;-76
2023/01/18 13:09:22;;;;;;;;;;;;;;;6.46;46.42;90353.91;2071809;69;20071;-77
2023/01/18 13:11:48;;;;;;;;;;;;;;;6.33;47.58;90358.34;2071923;69;20040;-73
2023/01/18 13:14:13;;;;;;;;;;;;;;;6.47;46.74;90355.38;2071969;69;20071;-73
2023/01/18 13:16:57;;;;;;;;;;;;;;;6.35;47.24;90361.19;2068628;69;20041;-76
2023/01/18 13:19:26;;;;;;;;;;;;;;;6.24;48.06;90359.38;2071752;69;20498;-73
2023/01/18 13:21:52;;;;;;;;;;;;;;;6.21;48.22;90366.25;2072010;69;20109;-72
2023/01/18 13:24:32;;;;;;;;;;;;;;;6.06;48.50;90357.31;2071649;69;20053;-74
2023/01/18 13:27:24;;;;;;;;;;;;;;;5.78;48.61;90364.53;2072084;69;20040;-76
2023/01/18 13:29:49;;;;;;;;;;;;;;;5.66;48.71;90358.44;2071226;69;20045;-73
2023/01/18 13:32:21;;;;;;;;;;;;;;;5.46;49.27;90359.06;2071963;69;20502;-73